createdAt,value
2019-02-18T00:02:36.489Z,80.9
2019-02-18T00:07:36.592Z,81.8
2019-02-18T00:12:36.479Z,80.2
2019-02-18T00:17:36.687Z,80.5
2019-02-18T00:22:36.490Z,81.1
2019-02-18T00:27:36.609Z,81.3
2019-02-18T00:32:36.502Z,81
2019-02-18T00:37:36.603Z,81.2
2019-02-18T00:42:36.495Z,81.2
2019-02-18T00:47:36.665Z,80.6
2019-02-18T00:52:36.517Z,80.5
2019-02-18T00:57:36.465Z,80.8
2019-02-18T01:02:36.770Z,81.2
2019-02-18T01:07:36.566Z,81.4
2019-02-18T01:12:36.635Z,81
2019-02-18T01:17:36.500Z,81.5
2019-02-18T01:22:36.708Z,81.1
2019-02-18T01:27:36.917Z,81.1
2019-02-18T01:32:36.681Z,81
2019-02-18T01:37:46.376Z,81.1
2019-02-18T01:42:36.504Z,80.9
2019-02-18T01:47:36.640Z,81.3
2019-02-18T01:52:36.544Z,83.2
2019-02-18T01:57:36.716Z,82.6
2019-02-18T02:02:36.535Z,82.3
2019-02-18T02:07:36.694Z,82.9
2019-02-18T02:12:36.753Z,82.1
2019-02-18T02:17:36.542Z,81.2
2019-02-18T02:22:36.539Z,81.3
2019-02-18T02:27:36.548Z,81.2
2019-02-18T02:32:36.529Z,81.3
2019-02-18T02:37:36.563Z,81.2
2019-02-18T02:42:36.750Z,81.3
2019-02-18T02:47:36.673Z,82.2
2019-02-18T02:52:36.718Z,81.5
2019-02-18T02:57:36.590Z,81.8
2019-02-18T03:02:36.571Z,82.2
2019-02-18T03:07:36.582Z,82.6
2019-02-18T03:12:36.777Z,82
2019-02-18T03:17:36.588Z,82.3
2019-02-18T03:22:36.706Z,81.6
2019-02-18T03:27:36.738Z,82.6
2019-02-18T03:32:36.722Z,83.1
2019-02-18T03:37:36.579Z,81.9
2019-02-18T03:42:36.596Z,82.1
2019-02-18T03:47:36.569Z,83.1
2019-02-18T03:52:36.585Z,82.3
2019-02-18T03:57:36.750Z,83.3
2019-02-18T04:02:36.588Z,82.6
2019-02-18T04:07:36.847Z,81.8
2019-02-18T04:12:36.746Z,82.1
2019-02-18T04:17:36.597Z,82.2
2019-02-18T04:22:36.725Z,82.8
2019-02-18T04:27:36.763Z,82.5
2019-02-18T04:32:36.627Z,83.2
2019-02-18T04:37:36.602Z,83.1
2019-02-18T04:42:36.876Z,82.4
2019-02-18T04:47:36.781Z,82.2
2019-02-18T04:52:36.652Z,83.4
2019-02-18T04:57:36.886Z,82.7
2019-02-18T05:02:36.791Z,83.2
2019-02-18T05:07:36.648Z,82.8
2019-02-18T05:12:36.862Z,82.7
2019-02-18T05:17:36.637Z,82.4
2019-02-18T05:22:36.645Z,82.3
2019-02-18T05:27:36.622Z,81.9
2019-02-18T05:32:36.687Z,82
2019-02-18T05:37:36.650Z,82.6
2019-02-18T05:42:36.656Z,82.9
2019-02-18T05:47:36.662Z,83.2
2019-02-18T05:52:36.654Z,83.7
2019-02-18T05:57:36.645Z,83.2
2019-02-18T06:02:36.666Z,82.9
2019-02-18T06:07:36.639Z,83.7
2019-02-18T06:12:36.678Z,83.2
2019-02-18T06:17:36.860Z,82.6
2019-02-18T06:22:39.056Z,82.7
2019-02-18T06:27:36.672Z,83.2
2019-02-18T06:32:36.801Z,81.5
2019-02-18T06:37:36.807Z,82.8
2019-02-18T06:42:36.875Z,82.5
2019-02-18T06:47:36.677Z,83.2
2019-02-18T06:52:36.678Z,83.5
2019-02-18T06:57:36.671Z,84.1
2019-02-18T07:02:36.910Z,83.1
2019-02-18T07:07:36.852Z,82.7
2019-02-18T07:12:36.854Z,83
2019-02-18T07:17:36.717Z,82.4
2019-02-18T07:22:36.702Z,82.7
2019-02-18T07:27:36.732Z,83.6
2019-02-18T07:32:37.930Z,82.8
2019-02-18T07:37:36.965Z,82.8
2019-02-18T07:42:36.883Z,82.7
2019-02-18T07:47:36.724Z,82.3
2019-02-18T07:52:36.948Z,81.1
2019-02-18T07:57:36.920Z,82.4
2019-02-18T08:02:36.724Z,81.5
2019-02-18T08:07:36.962Z,81.2
2019-02-18T08:12:36.761Z,81.1
2019-02-18T08:17:36.896Z,79.7
2019-02-18T08:22:36.954Z,78.7
2019-02-18T08:27:36.732Z,79
2019-02-18T08:32:36.733Z,76.5
2019-02-18T08:37:36.935Z,75.3
2019-02-18T08:42:36.747Z,74.9
2019-02-18T08:47:36.886Z,74.5
2019-02-18T08:52:36.745Z,74.2
2019-02-18T08:57:36.753Z,73.8
2019-02-18T09:02:36.715Z,73.7
2019-02-18T09:07:36.783Z,71.7
2019-02-18T09:12:36.873Z,71.8
2019-02-18T09:17:36.738Z,72.2
2019-02-18T09:22:36.769Z,70.8
2019-02-18T09:27:36.742Z,70.2
2019-02-18T09:32:36.768Z,69
2019-02-18T09:37:36.923Z,68.2
2019-02-18T09:42:36.894Z,69.8
2019-02-18T09:47:36.770Z,68.5
2019-02-18T09:52:36.964Z,67.7
2019-02-18T09:57:36.784Z,67.8
2019-02-18T10:02:36.787Z,67.9
2019-02-18T10:07:36.789Z,66
2019-02-18T10:12:37.041Z,66.3
2019-02-18T10:17:37.025Z,65.2
2019-02-18T10:22:36.926Z,64.9
2019-02-18T10:27:36.787Z,65.5
2019-02-18T10:32:36.791Z,64.8
2019-02-18T10:37:36.943Z,63.9
2019-02-18T10:42:36.801Z,63.4
2019-02-18T10:47:36.810Z,62
2019-02-18T10:52:36.787Z,61.6
2019-02-18T10:57:36.817Z,61.8
2019-02-18T11:02:36.815Z,60.5
2019-02-18T11:07:37.049Z,60.5
2019-02-18T11:12:36.825Z,60.1
2019-02-18T11:17:39.457Z,59.6
2019-02-18T11:22:36.941Z,60
2019-02-18T11:27:36.816Z,59.1
2019-02-18T11:32:36.838Z,55.8
2019-02-18T11:37:37.047Z,58.5
2019-02-18T11:42:37.871Z,57.6
2019-02-18T11:47:36.850Z,58.1
2019-02-18T11:52:37.072Z,56.5
2019-02-18T11:57:36.843Z,57.7
2019-02-18T12:02:36.852Z,58
2019-02-18T12:07:37.025Z,55.8
2019-02-18T12:12:36.889Z,54.6
2019-02-18T12:17:37.005Z,55.8
2019-02-18T12:22:36.865Z,55.9
2019-02-18T12:27:36.855Z,55.1
2019-02-18T12:32:38.048Z,55.7
2019-02-18T12:37:36.883Z,54.3
2019-02-18T12:42:38.117Z,53.4
2019-02-18T12:47:36.873Z,55.5
2019-02-18T12:52:37.993Z,53.8
2019-02-18T12:57:36.851Z,55.3
2019-02-18T13:02:45.209Z,55.9
2019-02-18T13:07:37.089Z,55.3
2019-02-18T13:12:37.259Z,55.4
2019-02-18T13:17:36.914Z,53.8
2019-02-18T13:22:36.898Z,53.5
2019-02-18T13:27:37.267Z,53.2
2019-02-18T13:32:36.922Z,53.3
2019-02-18T13:37:36.944Z,53.3
2019-02-18T13:42:37.475Z,54.3
2019-02-18T13:47:36.868Z,52.6
2019-02-18T13:52:36.917Z,53.3
2019-02-18T13:57:36.930Z,53
2019-02-18T14:02:36.944Z,52.5
2019-02-18T14:07:36.966Z,52.3
2019-02-18T14:12:36.929Z,51.7
2019-02-18T14:17:36.935Z,52.2
2019-02-18T14:22:36.939Z,53.7
2019-02-18T14:27:36.925Z,51.4
2019-02-18T14:32:36.928Z,50.7
2019-02-18T14:37:37.127Z,53
2019-02-18T14:42:36.926Z,51.6
2019-02-18T14:47:36.940Z,50.9
2019-02-18T14:52:37.327Z,51.3
2019-02-18T14:57:36.955Z,52.9
2019-02-18T15:02:36.957Z,52
2019-02-18T15:07:36.965Z,53.4
2019-02-18T15:12:36.953Z,53
2019-02-18T15:17:36.944Z,53.1
2019-02-18T15:22:36.973Z,52.3
2019-02-18T15:27:36.994Z,52.4
2019-02-18T15:32:37.005Z,52.7
2019-02-18T15:37:36.924Z,53.9
2019-02-18T15:42:42.870Z,52.3
2019-02-18T15:47:37.007Z,54
2019-02-18T15:52:37.000Z,55.8
2019-02-18T15:57:36.987Z,55.1
2019-02-18T16:02:37.312Z,55.8
2019-02-18T16:07:37.026Z,57.2
2019-02-18T16:12:37.214Z,59
2019-02-18T16:17:37.417Z,61.2
2019-02-18T16:22:37.030Z,62.5
2019-02-18T16:27:37.301Z,61.8
2019-02-18T16:32:37.153Z,63.2
2019-02-18T16:37:36.968Z,62.4
2019-02-18T16:42:37.482Z,64
2019-02-18T16:47:37.032Z,64.3
2019-02-18T16:52:37.317Z,65.2
2019-02-18T16:57:38.670Z,65.9
2019-02-18T17:02:37.017Z,67.8
2019-02-18T17:07:37.669Z,65.8
2019-02-18T17:12:37.481Z,67.4
2019-02-18T17:17:37.241Z,70.1
2019-02-18T17:22:37.058Z,70
2019-02-18T17:27:37.400Z,69.4
2019-02-18T17:32:36.970Z,71.6
2019-02-18T17:37:37.055Z,70.5
2019-02-18T17:42:37.021Z,70.3
2019-02-18T17:47:37.103Z,71.3
2019-02-18T17:52:37.048Z,73.5
2019-02-18T17:57:37.048Z,73.6
2019-02-18T18:02:37.048Z,73
2019-02-18T18:07:37.071Z,73.6
2019-02-18T18:12:37.050Z,73.9
2019-02-18T18:17:37.106Z,74.5
2019-02-18T18:22:37.019Z,73.8
2019-02-18T18:27:37.134Z,73.3
2019-02-18T18:32:37.327Z,74.3
2019-02-18T18:37:37.237Z,73.9
2019-02-18T18:42:37.102Z,75.7
2019-02-18T18:47:37.463Z,74.8
2019-02-18T18:52:37.375Z,75.6
2019-02-18T18:57:37.199Z,75.1
2019-02-18T19:02:37.139Z,75.8
2019-02-18T19:07:37.486Z,77
2019-02-18T19:12:37.816Z,75.5
2019-02-18T19:17:37.449Z,76.4
2019-02-18T19:22:37.167Z,76.2
2019-02-18T19:27:37.128Z,76.3
2019-02-18T19:32:37.653Z,76.6
2019-02-18T19:37:37.206Z,76.2
2019-02-18T19:42:37.226Z,76.9
2019-02-18T19:47:37.853Z,77.3
2019-02-18T19:52:38.110Z,77.3
2019-02-18T19:57:37.303Z,78
2019-02-18T20:02:37.201Z,78.5
2019-02-18T20:07:37.114Z,78.5
2019-02-18T20:12:37.269Z,80.2
2019-02-18T20:17:37.112Z,78.8
2019-02-18T20:22:37.116Z,80.1
2019-02-18T20:27:37.518Z,80.5
2019-02-18T20:32:37.152Z,79.5
2019-02-18T20:37:37.134Z,79.7
2019-02-18T20:42:37.171Z,80.7
2019-02-18T20:47:37.140Z,79.9
2019-02-18T20:52:37.202Z,80
2019-02-18T20:57:37.132Z,81
2019-02-18T21:02:37.508Z,79.5
2019-02-18T21:07:37.151Z,80.4
2019-02-18T21:12:37.222Z,82.4
2019-02-18T21:17:37.130Z,80.2
2019-02-18T21:22:37.498Z,80.7
2019-02-18T21:27:37.164Z,79.6
2019-02-18T21:32:37.160Z,80.8
2019-02-18T21:37:37.157Z,79.8
2019-02-18T21:42:37.157Z,80.2
2019-02-18T21:47:37.146Z,80.8
2019-02-18T21:52:37.152Z,81
2019-02-18T21:57:37.142Z,80.4
2019-02-18T22:02:37.179Z,80.7
2019-02-18T22:07:37.164Z,81.2
2019-02-18T22:12:37.208Z,80.7
2019-02-18T22:17:37.175Z,80.4
2019-02-18T22:22:37.183Z,80.1
2019-02-18T22:27:37.163Z,79.6
2019-02-18T22:32:37.272Z,80.6
2019-02-18T22:37:37.241Z,80.9
2019-02-18T22:42:37.161Z,81.5
2019-02-18T22:47:37.186Z,82.5
2019-02-18T22:52:37.180Z,82.7
2019-02-18T22:57:37.193Z,83
2019-02-18T23:02:37.191Z,81.6
2019-02-18T23:07:37.184Z,81.5
2019-02-18T23:12:37.204Z,82.3
2019-02-18T23:17:37.191Z,81.3
2019-02-18T23:22:37.216Z,81.9
2019-02-18T23:27:37.234Z,81.9
2019-02-18T23:32:37.158Z,82
2019-02-18T23:37:37.220Z,82.2
2019-02-18T23:42:37.203Z,83.3
2019-02-18T23:47:37.218Z,82.9
2019-02-18T23:52:37.164Z,82.5
2019-02-18T23:57:37.203Z,82.3
